createdAt,value
2019-01-19T00:04:23.801Z,21.37
2019-01-19T00:14:35.829Z,20.00
2019-01-19T00:25:09.260Z,22.10
2019-01-19T00:35:49.893Z,20.67
2019-01-19T00:46:20.359Z,22.90
2019-01-19T00:56:43.497Z,22.80
2019-01-19T01:07:36.019Z,21.37
2019-01-19T01:17:55.229Z,19.67
2019-01-19T01:28:20.429Z,25.17
2019-01-19T01:38:49.641Z,26.37
2019-01-19T01:49:26.457Z,24.53
2019-01-19T02:00:05.959Z,22.90
2019-01-19T02:10:51.431Z,26.67
2019-01-19T02:21:36.141Z,22.53
2019-01-19T02:32:06.675Z,29.67
2019-01-19T02:42:42.310Z,26.70
2019-01-19T02:53:25.872Z,24.90
2019-01-19T03:04:02.134Z,26.87
2019-01-19T03:14:48.367Z,25.13
2019-01-19T03:25:23.353Z,26.50
2019-01-19T03:35:39.554Z,31.97
2019-01-19T03:46:29.161Z,35.10
2019-01-19T03:57:09.749Z,37.53
2019-01-19T04:07:26.352Z,32.00
2019-01-19T04:17:55.857Z,36.63
2019-01-19T04:28:03.055Z,30.23
2019-01-19T04:38:08.338Z,35.30
2019-01-19T04:48:14.047Z,37.80
2019-01-19T04:58:19.395Z,33.10
2019-01-19T05:08:24.738Z,31.60
2019-01-19T05:18:30.282Z,29.90
2019-01-19T05:28:35.793Z,29.23
2019-01-19T05:38:41.167Z,24.13
2019-01-19T05:48:46.500Z,25.43
2019-01-19T05:58:51.841Z,21.00
2019-01-19T06:08:57.178Z,22.80
2019-01-19T06:19:02.684Z,20.57
2019-01-19T06:29:07.886Z,27.63
2019-01-19T06:39:13.210Z,26.43
2019-01-19T06:49:18.573Z,21.03
2019-01-19T06:59:23.983Z,20.07
2019-01-19T07:09:29.291Z,20.87
2019-01-19T07:19:34.719Z,24.47
2019-01-19T07:29:40.033Z,24.17
2019-01-19T07:39:45.340Z,24.73
2019-01-19T07:49:50.625Z,29.40
2019-01-19T07:59:55.927Z,25.60
2019-01-19T08:10:01.287Z,29.93
2019-01-19T08:20:07.239Z,31.50
2019-01-19T08:30:15.793Z,28.37
2019-01-19T08:40:26.487Z,25.80
2019-01-19T08:50:31.855Z,31.67
2019-01-19T09:00:37.178Z,27.27
2019-01-19T09:10:42.516Z,30.30
2019-01-19T09:20:47.946Z,25.30
2019-01-19T09:30:53.367Z,34.60
2019-01-19T09:40:58.987Z,23.60
2019-01-19T09:51:04.468Z,28.50
2019-01-19T10:01:10.576Z,33.93
2019-01-19T10:11:16.244Z,30.30
2019-01-19T10:21:21.604Z,30.57
2019-01-19T10:31:26.937Z,28.50
2019-01-19T10:41:32.255Z,28.47
2019-01-19T10:51:37.682Z,28.23
2019-01-19T11:01:42.964Z,28.10
2019-01-19T11:11:48.290Z,27.03
2019-01-19T11:21:53.656Z,30.17
2019-01-19T11:31:59.047Z,28.60
2019-01-19T11:42:04.394Z,20.53
2019-01-19T11:52:09.841Z,23.20
2019-01-19T12:02:15.312Z,28.90
2019-01-19T12:12:20.776Z,25.50
2019-01-19T12:22:27.132Z,21.60
2019-01-19T12:32:32.635Z,26.17
2019-01-19T12:42:38.124Z,20.37
2019-01-19T12:52:43.652Z,23.30
2019-01-19T13:02:49.099Z,22.60
2019-01-19T13:13:16.223Z,25.97
2019-01-19T13:23:48.675Z,25.50
2019-01-19T13:34:47.779Z,27.97
2019-01-19T13:45:49.208Z,21.10
2019-01-19T13:56:35.665Z,25.63
2019-01-19T14:07:26.567Z,21.27
2019-01-19T14:17:55.988Z,27.07
2019-01-19T14:28:45.084Z,20.77
2019-01-19T14:39:32.689Z,23.30
2019-01-19T14:50:29.478Z,21.60
2019-01-19T15:00:56.236Z,18.17
2019-01-19T15:11:30.152Z,23.43
2019-01-19T15:22:03.374Z,22.27
2019-01-19T15:32:47.446Z,20.40
2019-01-19T15:43:25.438Z,25.30
2019-01-19T15:54:20.726Z,29.00
2019-01-19T16:05:02.922Z,22.03
2019-01-19T16:15:42.219Z,23.57
2019-01-19T16:26:12.070Z,27.80
2019-01-19T16:37:07.579Z,26.23
2019-01-19T16:47:41.710Z,37.23
2019-01-19T16:58:26.492Z,31.80
2019-01-19T17:09:19.571Z,30.50
2019-01-19T17:20:29.746Z,41.23
2019-01-19T17:31:37.152Z,52.07
2019-01-19T17:42:28.818Z,49.63
2019-01-19T17:53:12.218Z,45.70
2019-01-19T18:03:41.800Z,45.17
2019-01-19T18:14:39.731Z,45.50
2019-01-19T18:25:07.950Z,40.27
2019-01-19T18:35:39.878Z,35.00
2019-01-19T18:46:33.241Z,31.17
2019-01-19T18:57:25.758Z,36.60
2019-01-19T19:08:02.210Z,39.87
2019-01-19T19:18:49.718Z,37.90
2019-01-19T19:29:41.399Z,43.57
2019-01-19T19:40:15.361Z,42.97
2019-01-19T19:50:58.293Z,42.13
2019-01-19T20:01:03.701Z,41.37
2019-01-19T20:11:09.005Z,42.87
2019-01-19T20:21:14.382Z,45.57
2019-01-19T20:31:19.745Z,47.73
2019-01-19T20:41:25.123Z,44.43
2019-01-19T20:51:30.499Z,39.70
2019-01-19T21:01:36.008Z,44.20
2019-01-19T21:11:41.413Z,43.47
2019-01-19T21:21:46.905Z,49.47
2019-01-19T21:31:52.267Z,51.90
2019-01-19T21:41:57.591Z,43.97
2019-01-19T21:52:02.979Z,43.57
2019-01-19T22:02:08.369Z,48.63
2019-01-19T22:12:13.978Z,49.43
2019-01-19T22:22:19.386Z,47.70
2019-01-19T22:32:25.029Z,40.57
2019-01-19T22:42:30.380Z,47.03
2019-01-19T22:52:35.700Z,48.63
2019-01-19T23:02:41.106Z,51.87
2019-01-19T23:12:47.571Z,47.13
2019-01-19T23:22:52.944Z,50.43
2019-01-19T23:32:58.382Z,51.97
2019-01-19T23:43:03.677Z,48.70
2019-01-19T23:53:09.090Z,48.57
